createdAt,value
2023-01-31T00:01:46.494Z,2.07
2023-01-31T00:04:15.736Z,2.30
2023-01-31T00:06:51.760Z,2.57
2023-01-31T00:09:22.511Z,2.60
2023-01-31T00:11:54.015Z,2.03
2023-01-31T00:14:25.346Z,2.37
2023-01-31T00:16:55.956Z,2.20
2023-01-31T00:19:25.022Z,2.40
2023-01-31T00:21:55.835Z,2.90
2023-01-31T00:24:25.084Z,2.17
2023-01-31T00:26:57.321Z,2.20
2023-01-31T00:29:28.446Z,2.63
2023-01-31T00:31:57.840Z,2.20
2023-01-31T00:34:27.362Z,2.13
2023-01-31T00:36:56.486Z,2.70
2023-01-31T00:39:27.257Z,2.07
2023-01-31T00:41:57.948Z,2.10
2023-01-31T00:44:26.900Z,2.10
2023-01-31T00:46:55.752Z,2.50
2023-01-31T00:49:24.971Z,2.07
2023-01-31T00:51:53.956Z,1.90
2023-01-31T00:54:22.987Z,2.13
2023-01-31T00:56:52.056Z,2.17
2023-01-31T00:59:22.447Z,2.87
2023-01-31T01:01:51.283Z,2.03
2023-01-31T01:04:20.442Z,3.27
2023-01-31T01:06:50.775Z,2.43
2023-01-31T01:09:20.085Z,2.37
2023-01-31T01:11:50.413Z,2.20
2023-01-31T01:14:19.631Z,2.03
2023-01-31T01:16:51.704Z,2.30
2023-01-31T01:19:22.293Z,1.60
2023-01-31T01:21:52.112Z,1.93
2023-01-31T01:24:22.029Z,1.50
2023-01-31T01:26:51.218Z,1.20
2023-01-31T01:29:20.597Z,1.90
2023-01-31T01:31:51.411Z,1.80
2023-01-31T01:34:20.656Z,1.70
2023-01-31T01:36:49.832Z,1.60
2023-01-31T01:39:19.905Z,1.40
2023-01-31T01:41:51.649Z,1.57
2023-01-31T01:44:48.377Z,1.87
2023-01-31T01:47:25.136Z,1.50
2023-01-31T01:50:00.183Z,1.67
2023-01-31T01:52:32.139Z,2.00
2023-01-31T01:55:08.219Z,1.40
2023-01-31T01:57:42.051Z,1.93
2023-01-31T02:00:15.499Z,1.77
2023-01-31T02:02:47.992Z,1.30
2023-01-31T02:05:21.431Z,1.10
2023-01-31T02:07:50.499Z,1.47
2023-01-31T02:10:28.726Z,1.43
2023-01-31T02:12:58.194Z,1.40
2023-01-31T02:15:31.899Z,1.67
2023-01-31T02:18:03.077Z,1.40
2023-01-31T02:21:26.533Z,1.73
2023-01-31T02:24:27.030Z,1.43
2023-01-31T02:27:30.124Z,1.77
2023-01-31T02:30:34.731Z,1.23
2023-01-31T02:33:19.601Z,1.27
2023-01-31T02:35:59.864Z,1.43
2023-01-31T02:38:41.562Z,1.40
2023-01-31T02:41:19.848Z,1.70
2023-01-31T02:44:13.100Z,1.10
2023-01-31T02:46:53.091Z,1.17
2023-01-31T02:49:36.780Z,1.53
2023-01-31T02:52:26.723Z,1.70
2023-01-31T02:55:23.671Z,0.90
2023-01-31T02:57:54.898Z,1.47
2023-01-31T03:00:26.249Z,1.10
2023-01-31T03:02:57.033Z,1.63
2023-01-31T03:05:27.756Z,1.27
2023-01-31T03:08:03.084Z,1.40
2023-01-31T03:10:57.544Z,2.00
2023-01-31T03:13:37.053Z,1.20
2023-01-31T03:16:36.554Z,2.00
2023-01-31T03:19:14.058Z,1.30
2023-01-31T03:21:48.964Z,1.47
2023-01-31T03:24:22.271Z,1.73
2023-01-31T03:26:51.837Z,2.10
2023-01-31T03:29:21.857Z,1.47
2023-01-31T03:31:55.868Z,1.33
2023-01-31T03:34:27.299Z,1.50
2023-01-31T03:37:05.528Z,1.50
2023-01-31T03:39:59.112Z,1.53
2023-01-31T03:42:34.912Z,1.23
2023-01-31T03:45:09.310Z,1.33
2023-01-31T03:47:41.108Z,1.20
2023-01-31T03:50:16.441Z,1.30
2023-01-31T03:52:54.681Z,1.27
2023-01-31T03:55:33.460Z,1.37
2023-01-31T03:58:05.955Z,0.93
2023-01-31T04:00:41.104Z,1.53
2023-01-31T04:03:17.952Z,1.50
2023-01-31T04:05:47.333Z,2.73
2023-01-31T04:08:18.107Z,2.17
2023-01-31T04:10:56.553Z,1.60
2023-01-31T04:13:25.558Z,1.80
2023-01-31T04:15:54.420Z,1.67
2023-01-31T04:18:23.541Z,1.30
2023-01-31T04:20:52.657Z,1.80
2023-01-31T04:23:24.649Z,1.67
2023-01-31T04:25:55.332Z,1.70
2023-01-31T04:28:24.779Z,1.10
2023-01-31T04:30:57.098Z,1.53
2023-01-31T04:33:26.365Z,1.23
2023-01-31T04:35:55.173Z,1.70
2023-01-31T04:38:25.808Z,1.53
2023-01-31T04:40:55.204Z,2.03
2023-01-31T04:43:24.339Z,1.40
2023-01-31T04:45:53.712Z,1.57
2023-01-31T04:48:23.180Z,1.97
2023-01-31T04:50:52.075Z,1.43
2023-01-31T04:53:22.706Z,1.40
2023-01-31T04:55:56.399Z,1.73
2023-01-31T04:58:25.623Z,0.90
2023-01-31T05:00:55.930Z,1.87
2023-01-31T05:03:25.455Z,2.30
2023-01-31T05:05:54.940Z,1.67
2023-01-31T05:08:24.180Z,1.50
2023-01-31T05:11:03.882Z,1.47
2023-01-31T05:13:34.165Z,2.10
2023-01-31T05:16:03.726Z,1.63
2023-01-31T05:18:39.594Z,1.37
2023-01-31T05:21:09.705Z,1.77
2023-01-31T05:23:43.112Z,2.10
2023-01-31T05:26:16.183Z,1.93
2023-01-31T05:28:45.737Z,1.43
2023-01-31T05:31:15.421Z,1.97
2023-01-31T05:33:45.026Z,1.70
2023-01-31T05:36:15.051Z,1.70
2023-01-31T05:38:44.111Z,1.53
2023-01-31T05:41:14.647Z,1.47
2023-01-31T05:43:43.836Z,1.70
2023-01-31T05:46:13.037Z,2.13
2023-01-31T05:48:51.391Z,1.20
2023-01-31T05:51:20.667Z,1.17
2023-01-31T05:53:50.113Z,1.50
2023-01-31T05:56:22.648Z,1.77
2023-01-31T05:58:55.920Z,1.97
2023-01-31T06:01:28.638Z,1.73
2023-01-31T06:03:57.994Z,1.87
2023-01-31T06:06:27.169Z,1.40
2023-01-31T06:08:56.294Z,1.30
2023-01-31T06:11:27.202Z,1.63
2023-01-31T06:13:58.603Z,1.53
2023-01-31T06:16:27.910Z,1.60
2023-01-31T06:18:57.770Z,1.13
2023-01-31T06:21:27.125Z,1.20
2023-01-31T06:23:56.269Z,1.40
2023-01-31T06:26:31.788Z,1.43
2023-01-31T06:29:01.023Z,1.03
2023-01-31T06:31:30.859Z,1.30
2023-01-31T06:34:00.269Z,1.30
2023-01-31T06:36:29.304Z,1.37
2023-01-31T06:38:58.158Z,1.30
2023-01-31T06:41:28.743Z,1.40
2023-01-31T06:43:58.331Z,1.20
2023-01-31T06:46:27.491Z,1.53
2023-01-31T06:48:57.156Z,1.53
2023-01-31T06:51:26.381Z,1.70
2023-01-31T06:53:56.846Z,0.93
2023-01-31T06:56:26.031Z,1.13
2023-01-31T06:58:59.413Z,1.67
2023-01-31T07:01:28.784Z,1.63
2023-01-31T07:03:59.291Z,1.23
2023-01-31T07:06:32.465Z,1.13
2023-01-31T07:09:01.658Z,1.00
2023-01-31T07:11:31.475Z,1.70
2023-01-31T07:14:02.166Z,1.63
2023-01-31T07:16:32.551Z,1.53
2023-01-31T07:19:03.914Z,1.53
2023-01-31T07:21:37.151Z,2.17
2023-01-31T07:24:06.949Z,1.73
2023-01-31T07:26:36.819Z,1.73
2023-01-31T07:29:08.159Z,1.50
2023-01-31T07:31:38.116Z,1.50
2023-01-31T07:34:07.428Z,2.27
2023-01-31T07:36:36.881Z,2.20
2023-01-31T07:39:07.653Z,1.70
2023-01-31T07:41:36.899Z,1.73
2023-01-31T07:44:12.301Z,1.87
2023-01-31T07:46:42.660Z,1.40
2023-01-31T07:49:12.784Z,1.87
2023-01-31T07:51:42.056Z,1.57
2023-01-31T07:54:12.727Z,1.33
2023-01-31T07:56:43.089Z,1.97
2023-01-31T07:59:14.035Z,1.67
2023-01-31T08:02:01.206Z,1.83
2023-01-31T08:04:32.236Z,1.83
2023-01-31T08:07:03.444Z,1.93
2023-01-31T08:09:33.109Z,1.30
2023-01-31T08:12:02.015Z,1.90
2023-01-31T08:14:33.798Z,2.00
2023-01-31T08:17:03.263Z,1.87
2023-01-31T08:19:32.764Z,1.50
2023-01-31T08:22:02.445Z,1.70
2023-01-31T08:24:32.686Z,1.20
2023-01-31T08:27:04.563Z,1.30
2023-01-31T08:29:35.473Z,1.37
2023-01-31T08:32:04.793Z,1.57
2023-01-31T08:34:35.520Z,1.53
2023-01-31T08:37:05.507Z,2.20
2023-01-31T08:39:34.666Z,1.70
2023-01-31T08:42:04.089Z,1.70
2023-01-31T08:44:34.725Z,1.40
2023-01-31T08:47:03.746Z,2.40
2023-01-31T08:49:34.222Z,1.50
2023-01-31T08:52:03.878Z,1.47
2023-01-31T08:54:32.966Z,1.40
2023-01-31T08:57:06.492Z,1.80
2023-01-31T08:59:37.143Z,1.57
2023-01-31T09:02:06.536Z,1.80
2023-01-31T09:04:36.330Z,2.47
2023-01-31T09:07:06.937Z,1.80
2023-01-31T09:09:35.885Z,1.40
2023-01-31T09:12:05.988Z,1.83
2023-01-31T09:14:37.245Z,2.40
2023-01-31T09:17:08.508Z,1.50
2023-01-31T09:19:37.646Z,1.60
2023-01-31T09:22:06.630Z,1.37
2023-01-31T09:24:38.841Z,1.63
2023-01-31T09:27:10.440Z,1.33
2023-01-31T09:29:41.084Z,1.27
2023-01-31T09:32:12.051Z,1.60
2023-01-31T09:34:41.067Z,1.93
2023-01-31T09:37:10.317Z,1.90
2023-01-31T09:39:39.884Z,1.47
2023-01-31T09:42:19.263Z,1.77
2023-01-31T09:45:03.590Z,1.40
2023-01-31T09:47:38.651Z,1.53
2023-01-31T09:50:15.763Z,1.60
2023-01-31T09:52:45.449Z,1.23
2023-01-31T09:55:22.726Z,2.30
2023-01-31T09:58:05.589Z,2.00
2023-01-31T10:00:52.321Z,1.80
2023-01-31T10:03:37.403Z,1.57
2023-01-31T10:06:14.865Z,1.57
2023-01-31T10:08:56.276Z,1.83
2023-01-31T10:11:38.280Z,1.60
2023-01-31T10:14:28.141Z,1.90
2023-01-31T10:17:14.047Z,1.17
2023-01-31T10:19:49.438Z,1.30
2023-01-31T10:22:26.369Z,1.70
2023-01-31T10:25:06.638Z,1.97
2023-01-31T10:27:45.648Z,1.73
2023-01-31T10:30:20.610Z,1.53
2023-01-31T10:32:58.339Z,1.63
2023-01-31T10:35:32.023Z,1.70
2023-01-31T10:38:10.864Z,1.90
2023-01-31T10:40:46.453Z,1.50
2023-01-31T10:43:24.698Z,1.47
2023-01-31T10:45:54.281Z,1.43
2023-01-31T10:48:27.188Z,1.67
2023-01-31T10:51:08.743Z,1.60
2023-01-31T10:53:57.379Z,1.87
2023-01-31T10:56:32.913Z,1.60
2023-01-31T10:59:04.956Z,2.03
2023-01-31T11:01:35.781Z,2.13
2023-01-31T11:04:25.182Z,1.57
2023-01-31T11:06:55.072Z,2.03
2023-01-31T11:09:26.258Z,1.90
2023-01-31T11:11:57.891Z,2.17
2023-01-31T11:14:31.801Z,2.03
2023-01-31T11:17:07.123Z,1.70
2023-01-31T11:19:47.408Z,2.00
2023-01-31T11:22:26.854Z,3.17
2023-01-31T11:25:00.583Z,2.40
2023-01-31T11:27:34.994Z,2.27
2023-01-31T11:30:08.160Z,2.67
2023-01-31T11:32:38.846Z,2.60
2023-01-31T11:35:27.690Z,2.30
2023-01-31T11:37:58.862Z,1.90
2023-01-31T11:40:34.641Z,2.17
2023-01-31T11:43:06.852Z,1.90
2023-01-31T11:45:39.033Z,1.93
2023-01-31T11:48:12.519Z,1.83
2023-01-31T11:50:47.786Z,2.63
2023-01-31T11:53:21.937Z,1.90
2023-01-31T11:55:52.819Z,2.10
2023-01-31T11:58:24.729Z,2.03
2023-01-31T12:01:00.375Z,1.70
2023-01-31T12:03:32.903Z,2.40
2023-01-31T12:06:11.201Z,2.70
2023-01-31T12:08:53.244Z,1.83
2023-01-31T12:11:33.408Z,1.40
2023-01-31T12:14:16.458Z,1.80
2023-01-31T12:16:50.379Z,1.67
2023-01-31T12:19:33.750Z,2.00
2023-01-31T12:22:13.305Z,1.87
2023-01-31T12:24:53.323Z,1.60
2023-01-31T12:27:35.510Z,2.03
2023-01-31T12:30:36.185Z,1.70
2023-01-31T12:33:27.592Z,1.80
2023-01-31T12:36:21.419Z,2.23
2023-01-31T12:39:24.150Z,2.30
2023-01-31T12:42:04.508Z,1.80
2023-01-31T12:44:46.335Z,2.40
2023-01-31T12:47:55.948Z,2.60
2023-01-31T12:50:34.540Z,2.40
2023-01-31T12:53:28.116Z,2.57
2023-01-31T12:56:31.839Z,2.77
2023-01-31T12:59:16.322Z,1.43
2023-01-31T13:01:52.887Z,1.67
2023-01-31T13:04:33.073Z,1.50
2023-01-31T13:07:06.402Z,1.80
2023-01-31T13:09:37.962Z,1.90
2023-01-31T13:12:13.840Z,2.20
2023-01-31T13:14:45.821Z,1.93
2023-01-31T13:17:21.040Z,1.90
2023-01-31T13:19:54.796Z,1.80
2023-01-31T13:22:28.802Z,2.03
2023-01-31T13:25:05.609Z,1.87
2023-01-31T13:27:41.876Z,2.03
2023-01-31T13:30:27.972Z,2.30
2023-01-31T13:33:01.403Z,1.97
2023-01-31T13:35:39.755Z,2.47
2023-01-31T13:38:21.961Z,1.50
2023-01-31T13:40:55.217Z,2.03
2023-01-31T13:43:26.506Z,2.30
2023-01-31T13:46:00.345Z,2.57
2023-01-31T13:48:37.969Z,1.93
2023-01-31T13:51:16.659Z,2.60
2023-01-31T13:53:53.016Z,2.00
2023-01-31T13:56:27.672Z,2.53
2023-01-31T13:59:00.150Z,2.27
2023-01-31T14:01:48.471Z,2.33
2023-01-31T14:04:35.568Z,2.40
2023-01-31T14:07:24.419Z,2.20
2023-01-31T14:10:33.195Z,2.50
2023-01-31T14:13:28.901Z,2.63
2023-01-31T14:16:01.110Z,1.97
2023-01-31T14:18:40.885Z,2.20
2023-01-31T14:22:01.410Z,2.10
2023-01-31T14:25:06.944Z,2.43
2023-01-31T14:27:43.149Z,2.23
2023-01-31T14:30:31.112Z,2.60
2023-01-31T14:33:25.766Z,2.83
2023-01-31T14:36:33.926Z,2.20
2023-01-31T14:39:44.726Z,2.20
2023-01-31T14:42:57.940Z,1.97
2023-01-31T14:45:44.608Z,2.93
2023-01-31T14:48:23.726Z,2.80
2023-01-31T14:51:16.489Z,3.33
2023-01-31T14:54:22.142Z,3.00
2023-01-31T14:57:10.472Z,2.23
2023-01-31T14:59:46.752Z,2.10
2023-01-31T15:02:37.409Z,2.47
2023-01-31T15:05:11.324Z,2.60
2023-01-31T15:08:04.615Z,2.60
2023-01-31T15:11:02.352Z,2.70
2023-01-31T15:13:44.731Z,2.67
2023-01-31T15:16:22.077Z,3.67
2023-01-31T15:18:54.962Z,3.27
2023-01-31T15:21:30.481Z,2.90
2023-01-31T15:24:03.262Z,2.87
2023-01-31T15:26:35.967Z,3.00
2023-01-31T15:29:06.318Z,2.93
2023-01-31T15:31:43.631Z,2.70
2023-01-31T15:34:21.200Z,4.07
2023-01-31T15:37:01.015Z,3.00
2023-01-31T15:39:38.651Z,3.50
2023-01-31T15:42:24.543Z,2.93
2023-01-31T15:45:14.548Z,3.40
2023-01-31T15:47:43.944Z,3.27
2023-01-31T15:50:18.077Z,3.00
2023-01-31T15:52:47.562Z,2.87
2023-01-31T15:55:20.626Z,3.23
2023-01-31T15:57:57.375Z,3.37
2023-01-31T16:00:30.399Z,2.40
2023-01-31T16:03:04.059Z,3.40
2023-01-31T16:05:36.196Z,3.17
2023-01-31T16:08:08.623Z,3.97
2023-01-31T16:10:39.511Z,3.20
2023-01-31T16:13:10.170Z,3.63
2023-01-31T16:15:41.184Z,4.50
2023-01-31T16:18:13.255Z,3.73
2023-01-31T16:20:48.401Z,3.73
2023-01-31T16:23:26.960Z,3.57
2023-01-31T16:26:07.455Z,3.40
2023-01-31T16:28:43.031Z,3.50
2023-01-31T16:31:13.881Z,4.20
2023-01-31T16:33:50.615Z,1.97
2023-01-31T16:36:25.815Z,3.97
2023-01-31T16:39:00.731Z,3.60
2023-01-31T16:41:58.567Z,4.73
2023-01-31T16:44:31.235Z,6.77
2023-01-31T16:47:00.246Z,4.73
2023-01-31T16:49:31.925Z,5.60
2023-01-31T16:52:16.615Z,6.10
2023-01-31T16:54:47.383Z,5.00
2023-01-31T16:57:27.664Z,4.43
2023-01-31T16:59:56.672Z,5.20
2023-01-31T17:02:31.797Z,4.73
2023-01-31T17:05:03.663Z,5.40
2023-01-31T17:07:37.861Z,5.23
2023-01-31T17:10:09.563Z,5.00
2023-01-31T17:12:41.872Z,5.77
2023-01-31T17:15:16.743Z,5.47
2023-01-31T17:17:46.419Z,4.57
2023-01-31T17:20:16.159Z,4.70
2023-01-31T17:22:56.906Z,4.60
2023-01-31T17:25:36.984Z,6.43
2023-01-31T17:28:08.305Z,5.63
2023-01-31T17:30:45.386Z,4.13
2023-01-31T17:33:16.254Z,5.20
2023-01-31T17:35:50.272Z,5.30
2023-01-31T17:38:19.536Z,6.50
2023-01-31T17:40:50.173Z,6.07
2023-01-31T17:43:25.527Z,6.23
2023-01-31T17:45:55.021Z,6.03
2023-01-31T17:48:26.680Z,6.57
2023-01-31T17:50:56.577Z,6.23
2023-01-31T17:53:26.315Z,6.90
2023-01-31T17:55:56.768Z,7.37
2023-01-31T17:58:28.028Z,7.30
2023-01-31T18:00:58.622Z,7.03
2023-01-31T18:03:30.037Z,6.53
2023-01-31T18:06:05.329Z,7.43
2023-01-31T18:08:35.581Z,7.47
2023-01-31T18:11:06.713Z,6.97
2023-01-31T18:13:38.306Z,5.93
2023-01-31T18:16:10.628Z,7.63
2023-01-31T18:18:41.081Z,8.60
2023-01-31T18:21:11.766Z,6.10
2023-01-31T18:23:41.039Z,4.63
2023-01-31T18:26:12.062Z,4.53
2023-01-31T18:28:42.393Z,3.90
2023-01-31T18:31:14.386Z,3.30
2023-01-31T18:33:49.196Z,2.80
2023-01-31T18:36:20.771Z,2.60
2023-01-31T18:38:52.212Z,3.23
2023-01-31T18:41:23.942Z,3.47
2023-01-31T18:43:54.789Z,3.00
2023-01-31T18:46:27.441Z,3.10
2023-01-31T18:48:59.096Z,2.70
2023-01-31T18:51:28.956Z,3.17
2023-01-31T18:54:02.623Z,2.83
2023-01-31T18:56:33.687Z,2.37
2023-01-31T18:59:04.860Z,2.53
2023-01-31T19:01:34.255Z,2.70
2023-01-31T19:04:03.819Z,2.70
2023-01-31T19:06:37.185Z,2.17
2023-01-31T19:09:08.854Z,2.77
2023-01-31T19:11:40.943Z,2.77
2023-01-31T19:14:15.002Z,2.80
2023-01-31T19:16:45.707Z,2.33
2023-01-31T19:19:15.099Z,3.10
2023-01-31T19:21:48.636Z,2.27
2023-01-31T19:24:18.241Z,2.83
2023-01-31T19:26:47.926Z,3.10
2023-01-31T19:29:19.547Z,3.13
2023-01-31T19:31:51.254Z,2.13
2023-01-31T19:34:22.490Z,2.73
2023-01-31T19:36:51.801Z,1.73
2023-01-31T19:39:21.207Z,3.23
2023-01-31T19:41:51.063Z,2.70
2023-01-31T19:44:22.236Z,3.27
2023-01-31T19:46:52.774Z,2.70
2023-01-31T19:49:22.538Z,2.10
2023-01-31T19:51:51.688Z,2.67
2023-01-31T19:54:21.420Z,3.03
2023-01-31T19:56:54.056Z,2.67
2023-01-31T19:59:25.559Z,2.90
2023-01-31T20:01:54.894Z,2.60
2023-01-31T20:04:24.842Z,3.50
2023-01-31T20:06:53.750Z,2.60
2023-01-31T20:09:23.347Z,1.70
2023-01-31T20:11:54.771Z,2.60
2023-01-31T20:14:25.647Z,3.03
2023-01-31T20:16:54.956Z,3.20
2023-01-31T20:19:26.126Z,2.60
2023-01-31T20:21:57.449Z,2.40
2023-01-31T20:24:40.724Z,2.53
2023-01-31T20:27:12.897Z,3.00
2023-01-31T20:29:45.154Z,3.23
2023-01-31T20:32:17.831Z,3.23
2023-01-31T20:34:48.537Z,2.47
2023-01-31T20:37:17.700Z,2.77
2023-01-31T20:39:47.376Z,3.40
2023-01-31T20:42:17.174Z,2.30
2023-01-31T20:44:49.331Z,2.77
2023-01-31T20:47:18.622Z,2.60
2023-01-31T20:49:47.735Z,2.53
2023-01-31T20:52:17.728Z,2.90
2023-01-31T20:54:49.257Z,2.33
2023-01-31T20:57:21.620Z,2.80
2023-01-31T20:59:52.565Z,2.70
2023-01-31T21:02:21.996Z,2.83
2023-01-31T21:04:51.445Z,2.33
2023-01-31T21:07:21.342Z,3.00
2023-01-31T21:09:50.331Z,2.73
2023-01-31T21:12:19.680Z,2.13
2023-01-31T21:14:49.288Z,2.40
2023-01-31T21:17:24.810Z,2.57
2023-01-31T21:20:01.125Z,2.00
2023-01-31T21:22:34.541Z,2.60
2023-01-31T21:25:04.342Z,2.33
2023-01-31T21:27:34.050Z,2.00
2023-01-31T21:30:03.137Z,2.50
2023-01-31T21:32:36.943Z,1.87
2023-01-31T21:35:06.489Z,2.17
2023-01-31T21:37:35.527Z,2.77
2023-01-31T21:40:04.629Z,1.67
2023-01-31T21:42:33.822Z,2.63
2023-01-31T21:45:03.289Z,2.77
2023-01-31T21:47:34.969Z,2.60
2023-01-31T21:50:05.047Z,2.67
2023-01-31T21:52:34.551Z,2.20
2023-01-31T21:55:03.682Z,1.77
2023-01-31T21:57:33.295Z,2.30
2023-01-31T22:00:02.486Z,2.77
2023-01-31T22:02:35.694Z,2.03
2023-01-31T22:05:05.304Z,2.70
2023-01-31T22:07:35.618Z,2.00
2023-01-31T22:10:05.009Z,1.30
2023-01-31T22:12:38.254Z,1.73
2023-01-31T22:15:09.364Z,1.60
2023-01-31T22:17:40.416Z,1.97
2023-01-31T22:20:12.350Z,2.30
2023-01-31T22:22:43.463Z,2.00
2023-01-31T22:25:13.399Z,2.07
2023-01-31T22:27:45.527Z,2.17
2023-01-31T22:30:16.871Z,2.03
2023-01-31T22:32:47.901Z,1.87
2023-01-31T22:35:17.415Z,2.03
2023-01-31T22:37:46.767Z,2.37
2023-01-31T22:40:16.682Z,1.90
2023-01-31T22:42:45.901Z,1.93
2023-01-31T22:45:17.648Z,1.60
2023-01-31T22:47:49.784Z,1.93
2023-01-31T22:50:20.682Z,1.67
2023-01-31T22:52:53.174Z,1.90
2023-01-31T22:55:22.256Z,2.07
2023-01-31T22:57:51.617Z,2.20
2023-01-31T23:00:23.511Z,1.97
2023-01-31T23:02:55.279Z,1.90
2023-01-31T23:05:25.024Z,1.10
2023-01-31T23:07:54.375Z,0.70
2023-01-31T23:10:23.875Z,0.43
2023-01-31T23:12:53.342Z,0.50
2023-01-31T23:23:58.134Z,0.80
2023-01-31T23:26:27.108Z,0.70
2023-01-31T23:28:56.537Z,0.57
2023-01-31T23:31:25.703Z,0.53
2023-01-31T23:33:54.987Z,0.90
2023-01-31T23:36:24.087Z,0.63
2023-01-31T23:38:53.379Z,0.60
2023-01-31T23:41:23.896Z,1.20
2023-01-31T23:43:53.081Z,0.90
2023-01-31T23:46:22.270Z,0.80
2023-01-31T23:48:51.402Z,0.40
2023-01-31T23:51:20.298Z,0.67
2023-01-31T23:53:49.624Z,0.60
2023-01-31T23:56:18.924Z,0.60
2023-01-31T23:58:49.508Z,0.53
